Time,TemperatureF,DewpointF,PressureIn,WindDirection,WindDirectionDegrees,WindSpeedMPH,WindSpeedGustMPH,Humidity,HourlyPrecipIn,Conditions,Clouds,dailyrainin,SoftwareType,DateUTC
2013-03-07 00:00:00,38.5,24.6,29.69,North,-999,-999.0,-999.0,57,-99.99,,,-99.99,meteohub,2013-03-07 05:00:00,
2013-03-07 00:01:00,38.5,24.6,29.69,North,-999,-999.0,-999.0,57,-99.99,,,-99.99,meteohub,2013-03-07 05:01:00,
2013-03-07 00:02:00,38.5,24.6,29.69,North,-999,-999.0,-999.0,57,-99.99,,,-99.99,meteohub,2013-03-07 05:02:00,
2013-03-07 00:07:00,38.5,24.6,29.69,North,-999,-999.0,-999.0,57,-99.99,,,-99.99,meteohub,2013-03-07 05:07:00,
2013-03-07 00:13:00,38.5,24.6,29.69,North,-999,-999.0,-999.0,57,-99.99,,,-99.99,meteohub,2013-03-07 05:13:00,
2013-03-07 00:18:00,38.5,25.0,29.69,North,-999,-999.0,-999.0,58,-99.99,,,-99.99,meteohub,2013-03-07 05:18:00,
2013-03-07 00:23:00,38.3,24.8,29.66,North,-999,-999.0,-999.0,58,-99.99,,,-99.99,meteohub,2013-03-07 05:23:00,
2013-03-07 00:28:00,38.3,24.8,29.66,North,-999,-999.0,-999.0,58,-99.99,,,-99.99,meteohub,2013-03-07 05:28:00,
2013-03-07 00:33:00,38.3,24.8,29.66,North,-999,-999.0,-999.0,58,-99.99,,,-99.99,meteohub,2013-03-07 05:33:00,
2013-03-07 00:38:00,38.3,24.8,29.69,North,-999,-999.0,-999.0,58,-99.99,,,-99.99,meteohub,2013-03-07 05:38:00,
2013-03-07 00:43:00,38.3,24.8,29.69,North,-999,-999.0,-999.0,58,-99.99,,,-99.99,meteohub,2013-03-07 05:43:00,
2013-03-07 00:48:00,38.3,24.8,29.69,North,-999,-999.0,-999.0,58,-99.99,,,-99.99,meteohub,2013-03-07 05:48:00,
2013-03-07 00:54:00,38.1,24.6,29.69,North,-999,-999.0,-999.0,58,-99.99,,,-99.99,meteohub,2013-03-07 05:54:00,
2013-03-07 00:59:00,38.1,24.6,29.69,North,-999,-999.0,-999.0,58,-99.99,,,-99.99,meteohub,2013-03-07 05:59:00,
2013-03-07 01:04:00,38.1,24.6,29.69,North,-999,-999.0,-999.0,58,-99.99,,,-99.99,meteohub,2013-03-07 06:04:00,
2013-03-07 01:09:00,38.1,24.6,29.69,North,-999,-999.0,-999.0,58,-99.99,,,-99.99,meteohub,2013-03-07 06:09:00,
2013-03-07 01:14:00,38.3,24.8,29.69,North,-999,-999.0,-999.0,58,-99.99,,,-99.99,meteohub,2013-03-07 06:14:00,
2013-03-07 01:19:00,38.1,24.6,29.69,North,-999,-999.0,-999.0,58,-99.99,,,-99.99,meteohub,2013-03-07 06:19:00,
2013-03-07 01:24:00,37.9,24.4,29.69,North,-999,-999.0,-999.0,58,-99.99,,,-99.99,meteohub,2013-03-07 06:24:00,
2013-03-07 01:29:00,37.9,24.4,29.69,North,-999,-999.0,-999.0,58,-99.99,,,-99.99,meteohub,2013-03-07 06:29:00,
2013-03-07 01:35:00,37.8,24.3,29.69,North,-999,-999.0,-999.0,58,-99.99,,,-99.99,meteohub,2013-03-07 06:35:00,
2013-03-07 01:40:00,37.6,24.3,29.69,North,-999,-999.0,-999.0,58,-99.99,,,-99.99,meteohub,2013-03-07 06:40:00,
2013-03-07 01:45:00,37.6,24.3,29.69,North,-999,-999.0,-999.0,58,-99.99,,,-99.99,meteohub,2013-03-07 06:45:00,
2013-03-07 01:50:00,37.4,24.1,29.69,North,-999,-999.0,-999.0,58,-99.99,,,-99.99,meteohub,2013-03-07 06:50:00,
2013-03-07 01:55:00,37.4,24.1,29.69,North,-999,-999.0,-999.0,58,-99.99,,,-99.99,meteohub,2013-03-07 06:55:00,
2013-03-07 02:00:00,37.2,24.3,29.69,North,-999,-999.0,-999.0,59,-99.99,,,-99.99,meteohub,2013-03-07 07:00:00,
2013-03-07 02:05:00,37.0,24.1,29.69,North,-999,-999.0,-999.0,59,-99.99,,,-99.99,meteohub,2013-03-07 07:05:00,
2013-03-07 02:11:00,37.0,24.1,29.69,North,-999,-999.0,-999.0,59,-99.99,,,-99.99,meteohub,2013-03-07 07:11:00,
2013-03-07 02:16:00,37.0,24.1,29.69,North,-999,-999.0,-999.0,59,-99.99,,,-99.99,meteohub,2013-03-07 07:16:00,
2013-03-07 02:21:00,37.0,24.1,29.69,North,-999,-999.0,-999.0,59,-99.99,,,-99.99,meteohub,2013-03-07 07:21:00,
2013-03-07 02:26:00,36.9,24.3,29.69,North,-999,-999.0,-999.0,60,-99.99,,,-99.99,meteohub,2013-03-07 07:26:00,
2013-03-07 02:31:00,36.9,24.3,29.69,North,-999,-999.0,-999.0,60,-99.99,,,-99.99,meteohub,2013-03-07 07:31:00,
2013-03-07 02:36:00,36.7,24.1,29.69,North,-999,-999.0,-999.0,60,-99.99,,,-99.99,meteohub,2013-03-07 07:36:00,
2013-03-07 02:42:00,36.7,24.1,29.69,North,-999,-999.0,-999.0,60,-99.99,,,-99.99,meteohub,2013-03-07 07:42:00,
2013-03-07 02:47:00,36.7,24.6,29.69,North,-999,-999.0,-999.0,61,-99.99,,,-99.99,meteohub,2013-03-07 07:47:00,
2013-03-07 02:52:00,36.7,24.6,29.69,North,-999,-999.0,-999.0,61,-99.99,,,-99.99,meteohub,2013-03-07 07:52:00,
2013-03-07 02:57:00,36.7,24.6,29.69,North,-999,-999.0,-999.0,61,-99.99,,,-99.99,meteohub,2013-03-07 07:57:00,
2013-03-07 03:02:00,36.5,24.4,29.69,North,-999,-999.0,-999.0,61,-99.99,,,-99.99,meteohub,2013-03-07 08:02:00,
2013-03-07 03:07:00,36.5,24.4,29.69,North,-999,-999.0,-999.0,61,-99.99,,,-99.99,meteohub,2013-03-07 08:07:00,
2013-03-07 03:12:00,36.5,24.8,29.69,North,-999,-999.0,-999.0,62,-99.99,,,-99.99,meteohub,2013-03-07 08:12:00,
2013-03-07 03:17:00,36.5,24.8,29.69,North,-999,-999.0,-999.0,62,-99.99,,,-99.99,meteohub,2013-03-07 08:17:00,
2013-03-07 03:22:00,36.5,24.8,29.69,North,-999,-999.0,-999.0,62,-99.99,,,-99.99,meteohub,2013-03-07 08:22:00,
2013-03-07 03:27:00,36.3,24.3,29.69,North,-999,-999.0,-999.0,61,-99.99,,,-99.99,meteohub,2013-03-07 08:27:00,
2013-03-07 03:32:00,36.3,24.6,29.69,North,-999,-999.0,-999.0,62,-99.99,,,-99.99,meteohub,2013-03-07 08:32:00,
2013-03-07 03:38:00,36.1,24.4,29.69,North,-999,-999.0,-999.0,62,-99.99,,,-99.99,meteohub,2013-03-07 08:38:00,
2013-03-07 03:43:00,35.8,24.1,29.69,North,-999,-999.0,-999.0,62,-99.99,,,-99.99,meteohub,2013-03-07 08:43:00,
2013-03-07 03:48:00,35.8,24.1,29.69,North,-999,-999.0,-999.0,62,-99.99,,,-99.99,meteohub,2013-03-07 08:48:00,
2013-03-07 03:53:00,35.8,24.1,29.69,North,-999,-999.0,-999.0,62,-99.99,,,-99.99,meteohub,2013-03-07 08:53:00,
2013-03-07 03:58:00,35.4,24.1,29.69,North,-999,-999.0,-999.0,63,-99.99,,,-99.99,meteohub,2013-03-07 08:58:00,
2013-03-07 04:04:00,35.1,23.7,29.69,North,-999,-999.0,-999.0,63,-99.99,,,-99.99,meteohub,2013-03-07 09:04:00,
2013-03-07 04:09:00,34.9,23.9,29.69,North,-999,-999.0,-999.0,64,-99.99,,,-99.99,meteohub,2013-03-07 09:09:00,
2013-03-07 04:14:00,34.5,23.7,29.69,North,-999,-999.0,-999.0,64,-99.99,,,-99.99,meteohub,2013-03-07 09:14:00,
2013-03-07 04:19:00,34.3,23.9,29.69,North,-999,-999.0,-999.0,65,-99.99,,,-99.99,meteohub,2013-03-07 09:19:00,
2013-03-07 04:27:00,34.0,23.9,29.69,North,-999,-999.0,-999.0,66,-99.99,,,-99.99,meteohub,2013-03-07 09:27:00,
2013-03-07 04:32:00,33.8,23.7,29.69,North,-999,-999.0,-999.0,66,-99.99,,,-99.99,meteohub,2013-03-07 09:32:00,
2013-03-07 04:37:00,33.6,23.9,29.69,North,-999,-999.0,-999.0,67,-99.99,,,-99.99,meteohub,2013-03-07 09:37:00,
2013-03-07 04:42:00,33.8,24.1,29.69,North,-999,-999.0,-999.0,67,-99.99,,,-99.99,meteohub,2013-03-07 09:42:00,
2013-03-07 04:47:00,34.2,24.4,29.69,North,-999,-999.0,-999.0,67,-99.99,,,-99.99,meteohub,2013-03-07 09:47:00,
2013-03-07 04:52:00,34.5,25.2,29.72,North,-999,-999.0,-999.0,68,-99.99,,,-99.99,meteohub,2013-03-07 09:52:00,
2013-03-07 04:57:00,34.9,25.3,29.72,North,-999,-999.0,-999.0,68,-99.99,,,-99.99,meteohub,2013-03-07 09:57:00,
2013-03-07 05:02:00,35.1,25.2,29.72,North,-999,-999.0,-999.0,67,-99.99,,,-99.99,meteohub,2013-03-07 10:02:00,
2013-03-07 05:07:00,34.9,25.0,29.72,North,-999,-999.0,-999.0,67,-99.99,,,-99.99,meteohub,2013-03-07 10:07:00,
2013-03-07 05:12:00,34.7,25.0,29.72,North,-999,-999.0,-999.0,67,-99.99,,,-99.99,meteohub,2013-03-07 10:12:00,
2013-03-07 05:17:00,34.9,25.0,29.72,North,-999,-999.0,-999.0,67,-99.99,,,-99.99,meteohub,2013-03-07 10:17:00,
2013-03-07 05:23:00,34.7,25.0,29.72,North,-999,-999.0,-999.0,67,-99.99,,,-99.99,meteohub,2013-03-07 10:23:00,
2013-03-07 05:28:00,34.5,24.8,29.72,North,-999,-999.0,-999.0,67,-99.99,,,-99.99,meteohub,2013-03-07 10:28:00,
2013-03-07 05:33:00,34.5,24.8,29.72,North,-999,-999.0,-999.0,67,-99.99,,,-99.99,meteohub,2013-03-07 10:33:00,
2013-03-07 05:38:00,34.9,25.0,29.72,North,-999,-999.0,-999.0,67,-99.99,,,-99.99,meteohub,2013-03-07 10:38:00,
2013-03-07 05:43:00,34.9,25.0,29.72,North,-999,-999.0,-999.0,67,-99.99,,,-99.99,meteohub,2013-03-07 10:43:00,
2013-03-07 05:49:00,34.9,25.0,29.72,North,-999,-999.0,-999.0,67,-99.99,,,-99.99,meteohub,2013-03-07 10:49:00,
2013-03-07 05:54:00,34.5,24.8,29.72,North,-999,-999.0,-999.0,67,-99.99,,,-99.99,meteohub,2013-03-07 10:54:00,
2013-03-07 05:59:00,34.3,24.6,29.72,North,-999,-999.0,-999.0,67,-99.99,,,-99.99,meteohub,2013-03-07 10:59:00,
2013-03-07 06:07:00,34.2,24.4,29.75,North,-999,-999.0,-999.0,67,-99.99,,,-99.99,meteohub,2013-03-07 11:07:00,
2013-03-07 06:12:00,34.0,24.6,29.75,North,-999,-999.0,-999.0,68,-99.99,,,-99.99,meteohub,2013-03-07 11:12:00,
2013-03-07 06:17:00,33.8,24.4,29.75,North,-999,-999.0,-999.0,68,-99.99,,,-99.99,meteohub,2013-03-07 11:17:00,
2013-03-07 06:23:00,33.6,24.6,29.75,North,-999,-999.0,-999.0,69,-99.99,,,-99.99,meteohub,2013-03-07 11:23:00,
2013-03-07 06:28:00,33.3,24.3,29.75,North,-999,-999.0,-999.0,69,-99.99,,,-99.99,meteohub,2013-03-07 11:28:00,
2013-03-07 06:33:00,33.3,24.6,29.75,North,-999,-999.0,-999.0,70,-99.99,,,-99.99,meteohub,2013-03-07 11:33:00,
2013-03-07 06:38:00,33.1,24.4,29.75,North,-999,-999.0,-999.0,70,-99.99,,,-99.99,meteohub,2013-03-07 11:38:00,
2013-03-07 06:44:00,32.9,24.3,29.75,North,-999,-999.0,-999.0,70,-99.99,,,-99.99,meteohub,2013-03-07 11:44:00,
2013-03-07 06:49:00,32.7,24.4,29.78,North,-999,-999.0,-999.0,71,-99.99,,,-99.99,meteohub,2013-03-07 11:49:00,
2013-03-07 06:55:00,32.7,24.4,29.78,North,-999,-999.0,-999.0,71,-99.99,,,-99.99,meteohub,2013-03-07 11:55:00,
2013-03-07 07:01:00,32.5,24.8,29.78,North,-999,-999.0,-999.0,73,-99.99,,,-99.99,meteohub,2013-03-07 12:01:00,
2013-03-07 07:06:00,32.5,24.8,29.81,North,-999,-999.0,-999.0,73,-99.99,,,-99.99,meteohub,2013-03-07 12:06:00,
2013-03-07 07:11:00,32.7,25.0,29.81,North,-999,-999.0,-999.0,73,-99.99,,,-99.99,meteohub,2013-03-07 12:11:00,
2013-03-07 07:16:00,32.7,25.3,29.81,North,-999,-999.0,-999.0,74,-99.99,,,-99.99,meteohub,2013-03-07 12:16:00,
2013-03-07 07:22:00,33.3,25.9,29.81,North,-999,-999.0,-999.0,74,-99.99,,,-99.99,meteohub,2013-03-07 12:22:00,
2013-03-07 07:27:00,33.8,26.4,29.81,North,-999,-999.0,-999.0,74,-99.99,,,-99.99,meteohub,2013-03-07 12:27:00,
2013-03-07 07:32:00,34.3,27.0,29.81,North,-999,-999.0,-999.0,74,-99.99,,,-99.99,meteohub,2013-03-07 12:32:00,
2013-03-07 07:37:00,35.2,27.5,29.81,North,-999,-999.0,-999.0,73,-99.99,,,-99.99,meteohub,2013-03-07 12:37:00,
2013-03-07 07:42:00,35.8,27.7,29.81,North,-999,-999.0,-999.0,72,-99.99,,,-99.99,meteohub,2013-03-07 12:42:00,
2013-03-07 07:47:00,36.3,27.9,29.81,North,-999,-999.0,-999.0,71,-99.99,,,-99.99,meteohub,2013-03-07 12:47:00,
2013-03-07 07:53:00,36.7,28.2,29.84,North,-999,-999.0,-999.0,71,-99.99,,,-99.99,meteohub,2013-03-07 12:53:00,
2013-03-07 07:58:00,37.8,28.2,29.84,North,-999,-999.0,-999.0,68,-99.99,,,-99.99,meteohub,2013-03-07 12:58:00,
2013-03-07 08:03:00,38.3,28.0,29.84,North,-999,-999.0,-999.0,66,-99.99,,,-99.99,meteohub,2013-03-07 13:03:00,
2013-03-07 08:09:00,38.8,28.0,29.84,North,-999,-999.0,-999.0,65,-99.99,,,-99.99,meteohub,2013-03-07 13:09:00,
2013-03-07 08:14:00,39.4,28.2,29.84,North,-999,-999.0,-999.0,64,-99.99,,,-99.99,meteohub,2013-03-07 13:14:00,
2013-03-07 08:19:00,40.1,28.2,29.84,North,-999,-999.0,-999.0,62,-99.99,,,-99.99,meteohub,2013-03-07 13:19:00,
2013-03-07 08:24:00,40.6,27.9,29.84,North,-999,-999.0,-999.0,60,-99.99,,,-99.99,meteohub,2013-03-07 13:24:00,
2013-03-07 08:29:00,41.2,27.5,29.84,North,-999,-999.0,-999.0,58,-99.99,,,-99.99,meteohub,2013-03-07 13:29:00,
2013-03-07 08:34:00,41.4,27.7,29.84,North,-999,-999.0,-999.0,58,-99.99,,,-99.99,meteohub,2013-03-07 13:34:00,
2013-03-07 08:40:00,42.1,27.5,29.84,North,-999,-999.0,-999.0,56,-99.99,,,-99.99,meteohub,2013-03-07 13:40:00,
2013-03-07 08:45:00,42.4,27.5,29.84,North,-999,-999.0,-999.0,55,-99.99,,,-99.99,meteohub,2013-03-07 13:45:00,
2013-03-07 08:50:00,43.2,27.7,29.84,North,-999,-999.0,-999.0,54,-99.99,,,-99.99,meteohub,2013-03-07 13:50:00,
2013-03-07 08:55:00,43.5,27.1,29.84,North,-999,-999.0,-999.0,52,-99.99,,,-99.99,meteohub,2013-03-07 13:55:00,
2013-03-07 09:01:00,44.1,28.0,29.84,North,-999,-999.0,-999.0,53,-99.99,,,-99.99,meteohub,2013-03-07 14:01:00,
2013-03-07 09:07:00,44.8,27.9,29.81,North,-999,-999.0,-999.0,51,-99.99,,,-99.99,meteohub,2013-03-07 14:07:00,
2013-03-07 09:12:00,44.8,26.8,29.81,North,-999,-999.0,-999.0,49,-99.99,,,-99.99,meteohub,2013-03-07 14:12:00,
2013-03-07 09:17:00,45.3,27.3,29.81,North,-999,-999.0,-999.0,49,-99.99,,,-99.99,meteohub,2013-03-07 14:17:00,
2013-03-07 09:22:00,45.5,27.0,29.84,North,-999,-999.0,-999.0,48,-99.99,,,-99.99,meteohub,2013-03-07 14:22:00,
2013-03-07 09:27:00,45.9,27.3,29.84,North,-999,-999.0,-999.0,48,-99.99,,,-99.99,meteohub,2013-03-07 14:27:00,
2013-03-07 09:32:00,46.4,27.9,29.84,North,-999,-999.0,-999.0,48,-99.99,,,-99.99,meteohub,2013-03-07 14:32:00,
2013-03-07 09:37:00,46.8,27.7,29.84,North,-999,-999.0,-999.0,47,-99.99,,,-99.99,meteohub,2013-03-07 14:37:00,
2013-03-07 09:42:00,47.3,27.7,29.84,North,-999,-999.0,-999.0,46,-99.99,,,-99.99,meteohub,2013-03-07 14:42:00,
2013-03-07 09:47:00,47.8,28.0,29.84,North,-999,-999.0,-999.0,46,-99.99,,,-99.99,meteohub,2013-03-07 14:47:00,
2013-03-07 09:52:00,48.4,28.6,29.81,North,-999,-999.0,-999.0,46,-99.99,,,-99.99,meteohub,2013-03-07 14:52:00,
2013-03-07 09:57:00,48.6,27.7,29.81,North,-999,-999.0,-999.0,44,-99.99,,,-99.99,meteohub,2013-03-07 14:57:00,
2013-03-07 10:04:00,48.9,28.6,29.81,North,-999,-999.0,-999.0,45,-99.99,,,-99.99,meteohub,2013-03-07 15:04:00,
2013-03-07 10:09:00,49.3,28.4,29.81,North,-999,-999.0,-999.0,44,-99.99,,,-99.99,meteohub,2013-03-07 15:09:00,
2013-03-07 10:14:00,49.3,27.1,29.81,North,-999,-999.0,-999.0,42,-99.99,,,-99.99,meteohub,2013-03-07 15:14:00,
2013-03-07 10:19:00,49.8,28.8,29.81,North,-999,-999.0,-999.0,44,-99.99,,,-99.99,meteohub,2013-03-07 15:19:00,
2013-03-07 10:25:00,50.2,28.6,29.81,North,-999,-999.0,-999.0,43,-99.99,,,-99.99,meteohub,2013-03-07 15:25:00,
2013-03-07 10:30:00,50.4,27.7,29.81,North,-999,-999.0,-999.0,41,-99.99,,,-99.99,meteohub,2013-03-07 15:30:00,
2013-03-07 10:37:00,50.5,27.7,29.81,North,-999,-999.0,-999.0,41,-99.99,,,-99.99,meteohub,2013-03-07 15:37:00,
2013-03-07 10:42:00,49.6,26.4,29.81,North,-999,-999.0,-999.0,40,-99.99,,,-99.99,meteohub,2013-03-07 15:42:00,
2013-03-07 10:49:00,49.6,27.0,29.81,North,-999,-999.0,-999.0,41,-99.99,,,-99.99,meteohub,2013-03-07 15:49:00,
2013-03-07 10:55:00,49.6,27.0,29.81,North,-999,-999.0,-999.0,41,-99.99,,,-99.99,meteohub,2013-03-07 15:55:00,
2013-03-07 11:00:00,51.1,28.2,29.81,North,-999,-999.0,-999.0,41,-99.99,,,-99.99,meteohub,2013-03-07 16:00:00,
2013-03-07 11:05:00,51.8,28.2,29.81,North,-999,-999.0,-999.0,40,-99.99,,,-99.99,meteohub,2013-03-07 16:05:00,
2013-03-07 11:12:00,53.6,29.3,29.81,North,-999,-999.0,-999.0,39,-99.99,,,-99.99,meteohub,2013-03-07 16:12:00,
2013-03-07 11:17:00,52.7,28.4,29.81,North,-999,-999.0,-999.0,39,-99.99,,,-99.99,meteohub,2013-03-07 16:17:00,
2013-03-07 11:22:00,52.7,27.9,29.81,North,-999,-999.0,-999.0,38,-99.99,,,-99.99,meteohub,2013-03-07 16:22:00,
2013-03-07 11:27:00,51.1,26.4,29.81,North,-999,-999.0,-999.0,38,-99.99,,,-99.99,meteohub,2013-03-07 16:27:00,
2013-03-07 11:32:00,52.5,27.7,29.81,North,-999,-999.0,-999.0,38,-99.99,,,-99.99,meteohub,2013-03-07 16:32:00,
2013-03-07 11:37:00,51.1,26.4,29.81,North,-999,-999.0,-999.0,38,-99.99,,,-99.99,meteohub,2013-03-07 16:37:00,
2013-03-07 11:42:00,50.0,26.1,29.81,North,-999,-999.0,-999.0,39,-99.99,,,-99.99,meteohub,2013-03-07 16:42:00,
2013-03-07 11:47:00,50.2,26.2,29.81,North,-999,-999.0,-999.0,39,-99.99,,,-99.99,meteohub,2013-03-07 16:47:00,
2013-03-07 11:52:00,50.0,26.1,29.81,North,-999,-999.0,-999.0,39,-99.99,,,-99.99,meteohub,2013-03-07 16:52:00,
2013-03-07 11:58:00,52.3,29.3,29.81,North,-999,-999.0,-999.0,41,-99.99,,,-99.99,meteohub,2013-03-07 16:58:00,
2013-03-07 12:03:00,51.8,27.7,29.81,North,-999,-999.0,-999.0,39,-99.99,,,-99.99,meteohub,2013-03-07 17:03:00,
2013-03-07 12:08:00,51.1,27.7,29.81,North,-999,-999.0,-999.0,40,-99.99,,,-99.99,meteohub,2013-03-07 17:08:00,
2013-03-07 12:13:00,50.9,27.0,29.81,North,-999,-999.0,-999.0,39,-99.99,,,-99.99,meteohub,2013-03-07 17:13:00,
2013-03-07 12:19:00,50.5,26.6,29.81,North,-999,-999.0,-999.0,39,-99.99,,,-99.99,meteohub,2013-03-07 17:19:00,
2013-03-07 12:24:00,52.3,28.2,29.78,North,-999,-999.0,-999.0,39,-99.99,,,-99.99,meteohub,2013-03-07 17:24:00,
2013-03-07 12:29:00,53.4,29.1,29.78,North,-999,-999.0,-999.0,39,-99.99,,,-99.99,meteohub,2013-03-07 17:29:00,
2013-03-07 12:34:00,53.8,28.2,29.78,North,-999,-999.0,-999.0,37,-99.99,,,-99.99,meteohub,2013-03-07 17:34:00,
2013-03-07 12:39:00,52.3,27.5,29.78,North,-999,-999.0,-999.0,38,-99.99,,,-99.99,meteohub,2013-03-07 17:39:00,
2013-03-07 12:45:00,51.8,27.0,29.78,North,-999,-999.0,-999.0,38,-99.99,,,-99.99,meteohub,2013-03-07 17:45:00,
2013-03-07 12:52:00,50.5,26.6,29.78,North,-999,-999.0,-999.0,39,-99.99,,,-99.99,meteohub,2013-03-07 17:52:00,
2013-03-07 12:57:00,50.5,26.6,29.78,North,-999,-999.0,-999.0,39,-99.99,,,-99.99,meteohub,2013-03-07 17:57:00,
2013-03-07 13:02:00,50.9,27.0,29.78,North,-999,-999.0,-999.0,39,-99.99,,,-99.99,meteohub,2013-03-07 18:02:00,
2013-03-07 13:07:00,53.1,28.2,29.78,North,-999,-999.0,-999.0,38,-99.99,,,-99.99,meteohub,2013-03-07 18:07:00,
2013-03-07 13:12:00,53.2,28.4,29.78,North,-999,-999.0,-999.0,38,-99.99,,,-99.99,meteohub,2013-03-07 18:12:00,
2013-03-07 13:17:00,51.3,26.6,29.78,North,-999,-999.0,-999.0,38,-99.99,,,-99.99,meteohub,2013-03-07 18:17:00,
2013-03-07 13:22:00,50.7,26.1,29.78,North,-999,-999.0,-999.0,38,-99.99,,,-99.99,meteohub,2013-03-07 18:22:00,
2013-03-07 13:27:00,51.6,27.0,29.78,North,-999,-999.0,-999.0,38,-99.99,,,-99.99,meteohub,2013-03-07 18:27:00,
2013-03-07 13:32:00,52.9,28.0,29.78,North,-999,-999.0,-999.0,38,-99.99,,,-99.99,meteohub,2013-03-07 18:32:00,
2013-03-07 13:37:00,51.4,26.8,29.78,North,-999,-999.0,-999.0,38,-99.99,,,-99.99,meteohub,2013-03-07 18:37:00,
2013-03-07 13:44:00,51.6,27.5,29.78,North,-999,-999.0,-999.0,39,-99.99,,,-99.99,meteohub,2013-03-07 18:44:00,
2013-03-07 13:49:00,51.4,26.8,29.75,North,-999,-999.0,-999.0,38,-99.99,,,-99.99,meteohub,2013-03-07 18:49:00,
2013-03-07 13:55:00,51.4,26.8,29.75,North,-999,-999.0,-999.0,38,-99.99,,,-99.99,meteohub,2013-03-07 18:55:00,
2013-03-07 14:00:00,51.6,27.0,29.75,North,-999,-999.0,-999.0,38,-99.99,,,-99.99,meteohub,2013-03-07 19:00:00,
2013-03-07 14:05:00,51.6,27.0,29.75,North,-999,-999.0,-999.0,38,-99.99,,,-99.99,meteohub,2013-03-07 19:05:00,
2013-03-07 14:10:00,51.3,26.6,29.75,North,-999,-999.0,-999.0,38,-99.99,,,-99.99,meteohub,2013-03-07 19:10:00,
2013-03-07 14:15:00,51.6,27.0,29.75,North,-999,-999.0,-999.0,38,-99.99,,,-99.99,meteohub,2013-03-07 19:15:00,
2013-03-07 14:20:00,51.6,27.0,29.75,North,-999,-999.0,-999.0,38,-99.99,,,-99.99,meteohub,2013-03-07 19:20:00,
2013-03-07 14:27:00,51.1,26.4,29.75,North,-999,-999.0,-999.0,38,-99.99,,,-99.99,meteohub,2013-03-07 19:27:00,
2013-03-07 14:32:00,50.9,26.2,29.75,North,-999,-999.0,-999.0,38,-99.99,,,-99.99,meteohub,2013-03-07 19:32:00,
2013-03-07 14:37:00,50.9,26.2,29.75,North,-999,-999.0,-999.0,38,-99.99,,,-99.99,meteohub,2013-03-07 19:37:00,
2013-03-07 14:42:00,51.6,27.0,29.75,North,-999,-999.0,-999.0,38,-99.99,,,-99.99,meteohub,2013-03-07 19:42:00,
2013-03-07 14:47:00,50.9,26.2,29.75,North,-999,-999.0,-999.0,38,-99.99,,,-99.99,meteohub,2013-03-07 19:47:00,
2013-03-07 14:54:00,50.5,25.9,29.75,North,-999,-999.0,-999.0,38,-99.99,,,-99.99,meteohub,2013-03-07 19:54:00,
2013-03-07 15:00:00,52.0,27.1,29.75,North,-999,-999.0,-999.0,38,-99.99,,,-99.99,meteohub,2013-03-07 20:00:00,
2013-03-07 15:05:00,52.2,26.8,29.75,North,-999,-999.0,-999.0,37,-99.99,,,-99.99,meteohub,2013-03-07 20:05:00,
2013-03-07 15:10:00,51.6,27.0,29.75,North,-999,-999.0,-999.0,38,-99.99,,,-99.99,meteohub,2013-03-07 20:10:00,
2013-03-07 15:17:00,51.1,26.4,29.75,North,-999,-999.0,-999.0,38,-99.99,,,-99.99,meteohub,2013-03-07 20:17:00,
2013-03-07 15:22:00,51.1,26.4,29.75,North,-999,-999.0,-999.0,38,-99.99,,,-99.99,meteohub,2013-03-07 20:22:00,
2013-03-07 15:27:00,52.0,27.1,29.75,North,-999,-999.0,-999.0,38,-99.99,,,-99.99,meteohub,2013-03-07 20:27:00,
2013-03-07 15:32:00,51.6,27.0,29.75,North,-999,-999.0,-999.0,38,-99.99,,,-99.99,meteohub,2013-03-07 20:32:00,
2013-03-07 15:37:00,51.4,27.3,29.75,North,-999,-999.0,-999.0,39,-99.99,,,-99.99,meteohub,2013-03-07 20:37:00,
2013-03-07 15:44:00,51.4,26.8,29.75,North,-999,-999.0,-999.0,38,-99.99,,,-99.99,meteohub,2013-03-07 20:44:00,
2013-03-07 15:51:00,51.8,27.0,29.75,North,-999,-999.0,-999.0,38,-99.99,,,-99.99,meteohub,2013-03-07 20:51:00,
2013-03-07 15:56:00,52.0,27.1,29.75,North,-999,-999.0,-999.0,38,-99.99,,,-99.99,meteohub,2013-03-07 20:56:00,
2013-03-07 16:02:00,51.6,27.0,29.75,North,-999,-999.0,-999.0,38,-99.99,,,-99.99,meteohub,2013-03-07 21:02:00,
2013-03-07 16:07:00,51.8,27.0,29.75,North,-999,-999.0,-999.0,38,-99.99,,,-99.99,meteohub,2013-03-07 21:07:00,
2013-03-07 16:12:00,51.6,27.0,29.75,North,-999,-999.0,-999.0,38,-99.99,,,-99.99,meteohub,2013-03-07 21:12:00,
2013-03-07 16:17:00,50.9,26.2,29.75,North,-999,-999.0,-999.0,38,-99.99,,,-99.99,meteohub,2013-03-07 21:17:00,
2013-03-07 16:22:00,50.5,25.9,29.78,North,-999,-999.0,-999.0,38,-99.99,,,-99.99,meteohub,2013-03-07 21:22:00,
2013-03-07 16:27:00,50.0,25.5,29.78,North,-999,-999.0,-999.0,38,-99.99,,,-99.99,meteohub,2013-03-07 21:27:00,
2013-03-07 16:32:00,49.6,25.7,29.78,North,-999,-999.0,-999.0,39,-99.99,,,-99.99,meteohub,2013-03-07 21:32:00,
2013-03-07 16:37:00,49.5,25.5,29.78,North,-999,-999.0,-999.0,39,-99.99,,,-99.99,meteohub,2013-03-07 21:37:00,
2013-03-07 16:43:00,49.5,25.5,29.78,North,-999,-999.0,-999.0,39,-99.99,,,-99.99,meteohub,2013-03-07 21:43:00,
2013-03-07 16:48:00,49.6,25.7,29.78,North,-999,-999.0,-999.0,39,-99.99,,,-99.99,meteohub,2013-03-07 21:48:00,
2013-03-07 16:53:00,49.6,25.7,29.78,North,-999,-999.0,-999.0,39,-99.99,,,-99.99,meteohub,2013-03-07 21:53:00,
2013-03-07 16:58:00,49.6,25.7,29.78,North,-999,-999.0,-999.0,39,-99.99,,,-99.99,meteohub,2013-03-07 21:58:00,
2013-03-07 17:07:00,49.3,25.3,29.78,North,-999,-999.0,-999.0,39,-99.99,,,-99.99,meteohub,2013-03-07 22:07:00,
2013-03-07 17:12:00,49.3,25.3,29.78,North,-999,-999.0,-999.0,39,-99.99,,,-99.99,meteohub,2013-03-07 22:12:00,
2013-03-07 17:17:00,48.9,25.2,29.78,North,-999,-999.0,-999.0,39,-99.99,,,-99.99,meteohub,2013-03-07 22:17:00,
2013-03-07 17:22:00,48.7,25.0,29.78,North,-999,-999.0,-999.0,39,-99.99,,,-99.99,meteohub,2013-03-07 22:22:00,
2013-03-07 17:29:00,48.6,24.8,29.78,North,-999,-999.0,-999.0,39,-99.99,,,-99.99,meteohub,2013-03-07 22:29:00,
2013-03-07 17:36:00,48.6,25.3,29.78,North,-999,-999.0,-999.0,40,-99.99,,,-99.99,meteohub,2013-03-07 22:36:00,
2013-03-07 17:41:00,48.4,24.6,29.81,North,-999,-999.0,-999.0,39,-99.99,,,-99.99,meteohub,2013-03-07 22:41:00,
2013-03-07 17:47:00,48.0,25.0,29.81,North,-999,-999.0,-999.0,40,-99.99,,,-99.99,meteohub,2013-03-07 22:47:00,
2013-03-07 17:52:00,47.8,24.8,29.81,North,-999,-999.0,-999.0,40,-99.99,,,-99.99,meteohub,2013-03-07 22:52:00,
2013-03-07 17:57:00,47.7,24.6,29.81,North,-999,-999.0,-999.0,40,-99.99,,,-99.99,meteohub,2013-03-07 22:57:00,
2013-03-07 18:02:00,47.3,24.3,29.81,North,-999,-999.0,-999.0,40,-99.99,,,-99.99,meteohub,2013-03-07 23:02:00,
2013-03-07 18:07:00,47.1,24.6,29.81,North,-999,-999.0,-999.0,41,-99.99,,,-99.99,meteohub,2013-03-07 23:07:00,
2013-03-07 18:12:00,46.9,24.4,29.81,North,-999,-999.0,-999.0,41,-99.99,,,-99.99,meteohub,2013-03-07 23:12:00,
2013-03-07 18:17:00,46.8,24.4,29.81,North,-999,-999.0,-999.0,41,-99.99,,,-99.99,meteohub,2013-03-07 23:17:00,
2013-03-07 18:22:00,46.6,24.3,29.81,North,-999,-999.0,-999.0,41,-99.99,,,-99.99,meteohub,2013-03-07 23:22:00,
2013-03-07 18:27:00,46.4,24.1,29.81,North,-999,-999.0,-999.0,41,-99.99,,,-99.99,meteohub,2013-03-07 23:27:00,
2013-03-07 18:32:00,46.2,24.4,29.81,North,-999,-999.0,-999.0,42,-99.99,,,-99.99,meteohub,2013-03-07 23:32:00,
2013-03-07 18:37:00,46.0,24.3,29.81,North,-999,-999.0,-999.0,42,-99.99,,,-99.99,meteohub,2013-03-07 23:37:00,
2013-03-07 18:42:00,45.7,23.9,29.81,North,-999,-999.0,-999.0,42,-99.99,,,-99.99,meteohub,2013-03-07 23:42:00,
2013-03-07 18:47:00,45.5,23.7,29.81,North,-999,-999.0,-999.0,42,-99.99,,,-99.99,meteohub,2013-03-07 23:47:00,
2013-03-07 18:52:00,45.5,23.7,29.81,North,-999,-999.0,-999.0,42,-99.99,,,-99.99,meteohub,2013-03-07 23:52:00,
2013-03-07 18:57:00,45.3,24.3,29.81,North,-999,-999.0,-999.0,43,-99.99,,,-99.99,meteohub,2013-03-07 23:57:00,
2013-03-07 19:02:00,45.0,23.9,29.81,North,-999,-999.0,-999.0,43,-99.99,,,-99.99,meteohub,2013-03-08 00:02:00,
2013-03-07 19:07:00,44.8,23.7,29.84,North,-999,-999.0,-999.0,43,-99.99,,,-99.99,meteohub,2013-03-08 00:07:00,
2013-03-07 19:12:00,44.6,23.5,29.84,North,-999,-999.0,-999.0,43,-99.99,,,-99.99,meteohub,2013-03-08 00:12:00,
2013-03-07 19:17:00,44.4,23.9,29.84,North,-999,-999.0,-999.0,44,-99.99,,,-99.99,meteohub,2013-03-08 00:17:00,
2013-03-07 19:22:00,44.2,23.7,29.84,North,-999,-999.0,-999.0,44,-99.99,,,-99.99,meteohub,2013-03-08 00:22:00,
2013-03-07 19:27:00,44.1,23.5,29.84,North,-999,-999.0,-999.0,44,-99.99,,,-99.99,meteohub,2013-03-08 00:27:00,
2013-03-07 19:32:00,43.9,23.4,29.84,North,-999,-999.0,-999.0,44,-99.99,,,-99.99,meteohub,2013-03-08 00:32:00,
2013-03-07 19:37:00,43.7,23.2,29.84,North,-999,-999.0,-999.0,44,-99.99,,,-99.99,meteohub,2013-03-08 00:37:00,
2013-03-07 19:42:00,43.7,23.2,29.84,North,-999,-999.0,-999.0,44,-99.99,,,-99.99,meteohub,2013-03-08 00:42:00,
2013-03-07 19:47:00,43.5,23.2,29.84,North,-999,-999.0,-999.0,44,-99.99,,,-99.99,meteohub,2013-03-08 00:47:00,
2013-03-07 19:52:00,43.3,23.5,29.84,North,-999,-999.0,-999.0,45,-99.99,,,-99.99,meteohub,2013-03-08 00:52:00,
2013-03-07 19:57:00,43.2,23.4,29.84,North,-999,-999.0,-999.0,45,-99.99,,,-99.99,meteohub,2013-03-08 00:57:00,
2013-03-07 20:02:00,43.0,23.2,29.84,North,-999,-999.0,-999.0,45,-99.99,,,-99.99,meteohub,2013-03-08 01:02:00,
2013-03-07 20:07:00,42.8,23.5,29.84,North,-999,-999.0,-999.0,46,-99.99,,,-99.99,meteohub,2013-03-08 01:07:00,
2013-03-07 20:12:00,42.8,23.0,29.84,North,-999,-999.0,-999.0,45,-99.99,,,-99.99,meteohub,2013-03-08 01:12:00,
2013-03-07 20:17:00,42.8,23.0,29.84,North,-999,-999.0,-999.0,45,-99.99,,,-99.99,meteohub,2013-03-08 01:17:00,
2013-03-07 20:22:00,42.6,23.4,29.87,North,-999,-999.0,-999.0,46,-99.99,,,-99.99,meteohub,2013-03-08 01:22:00,
2013-03-07 20:27:00,42.4,23.2,29.87,North,-999,-999.0,-999.0,46,-99.99,,,-99.99,meteohub,2013-03-08 01:27:00,
2013-03-07 20:32:00,42.4,23.2,29.87,North,-999,-999.0,-999.0,46,-99.99,,,-99.99,meteohub,2013-03-08 01:32:00,
2013-03-07 20:37:00,42.3,23.0,29.87,North,-999,-999.0,-999.0,46,-99.99,,,-99.99,meteohub,2013-03-08 01:37:00,
2013-03-07 20:43:00,42.3,23.0,29.87,North,-999,-999.0,-999.0,46,-99.99,,,-99.99,meteohub,2013-03-08 01:43:00,
2013-03-07 20:48:00,42.3,23.0,29.87,North,-999,-999.0,-999.0,46,-99.99,,,-99.99,meteohub,2013-03-08 01:48:00,
2013-03-07 20:54:00,42.1,22.3,29.87,North,-999,-999.0,-999.0,45,-99.99,,,-99.99,meteohub,2013-03-08 01:54:00,
2013-03-07 20:59:00,41.9,22.6,29.87,North,-999,-999.0,-999.0,46,-99.99,,,-99.99,meteohub,2013-03-08 01:59:00,
2013-03-07 21:04:00,41.7,22.5,29.87,North,-999,-999.0,-999.0,46,-99.99,,,-99.99,meteohub,2013-03-08 02:04:00,
2013-03-07 21:09:00,41.7,22.5,29.87,North,-999,-999.0,-999.0,46,-99.99,,,-99.99,meteohub,2013-03-08 02:09:00,
2013-03-07 21:14:00,41.5,22.3,29.87,North,-999,-999.0,-999.0,46,-99.99,,,-99.99,meteohub,2013-03-08 02:14:00,
2013-03-07 21:19:00,41.4,22.1,29.87,North,-999,-999.0,-999.0,46,-99.99,,,-99.99,meteohub,2013-03-08 02:19:00,
2013-03-07 21:24:00,41.4,22.6,29.87,North,-999,-999.0,-999.0,47,-99.99,,,-99.99,meteohub,2013-03-08 02:24:00,
2013-03-07 21:29:00,41.2,22.1,29.87,North,-999,-999.0,-999.0,46,-99.99,,,-99.99,meteohub,2013-03-08 02:29:00,
2013-03-07 21:35:00,41.0,21.9,29.87,North,-999,-999.0,-999.0,46,-99.99,,,-99.99,meteohub,2013-03-08 02:35:00,
2013-03-07 21:40:00,41.0,21.9,29.87,North,-999,-999.0,-999.0,46,-99.99,,,-99.99,meteohub,2013-03-08 02:40:00,
2013-03-07 21:45:00,40.8,21.7,29.87,North,-999,-999.0,-999.0,46,-99.99,,,-99.99,meteohub,2013-03-08 02:45:00,
2013-03-07 21:50:00,40.6,22.1,29.87,North,-999,-999.0,-999.0,47,-99.99,,,-99.99,meteohub,2013-03-08 02:50:00,
2013-03-07 21:55:00,40.3,22.3,29.87,North,-999,-999.0,-999.0,48,-99.99,,,-99.99,meteohub,2013-03-08 02:55:00,
2013-03-07 22:02:00,39.7,21.7,29.87,North,-999,-999.0,-999.0,48,-99.99,,,-99.99,meteohub,2013-03-08 03:02:00,
2013-03-07 22:07:00,39.4,21.4,29.87,North,-999,-999.0,-999.0,48,-99.99,,,-99.99,meteohub,2013-03-08 03:07:00,
2013-03-07 22:12:00,39.2,21.7,29.87,North,-999,-999.0,-999.0,49,-99.99,,,-99.99,meteohub,2013-03-08 03:12:00,
2013-03-07 22:17:00,39.0,21.6,29.87,North,-999,-999.0,-999.0,49,-99.99,,,-99.99,meteohub,2013-03-08 03:17:00,
2013-03-07 22:22:00,38.7,21.2,29.87,North,-999,-999.0,-999.0,49,-99.99,,,-99.99,meteohub,2013-03-08 03:22:00,
2013-03-07 22:27:00,38.5,21.6,29.87,North,-999,-999.0,-999.0,50,-99.99,,,-99.99,meteohub,2013-03-08 03:27:00,
2013-03-07 22:32:00,38.5,21.6,29.87,North,-999,-999.0,-999.0,50,-99.99,,,-99.99,meteohub,2013-03-08 03:32:00,
2013-03-07 22:37:00,38.3,21.4,29.87,North,-999,-999.0,-999.0,50,-99.99,,,-99.99,meteohub,2013-03-08 03:37:00,
2013-03-07 22:42:00,38.1,21.2,29.87,North,-999,-999.0,-999.0,50,-99.99,,,-99.99,meteohub,2013-03-08 03:42:00,
2013-03-07 22:47:00,38.3,21.4,29.87,North,-999,-999.0,-999.0,50,-99.99,,,-99.99,meteohub,2013-03-08 03:47:00,
2013-03-07 22:52:00,38.1,21.6,29.87,North,-999,-999.0,-999.0,51,-99.99,,,-99.99,meteohub,2013-03-08 03:52:00,
2013-03-07 22:57:00,37.9,21.6,29.87,North,-999,-999.0,-999.0,51,-99.99,,,-99.99,meteohub,2013-03-08 03:57:00,
2013-03-07 23:02:00,37.8,21.4,29.87,North,-999,-999.0,-999.0,51,-99.99,,,-99.99,meteohub,2013-03-08 04:02:00,
2013-03-07 23:09:00,37.6,21.2,29.87,North,-999,-999.0,-999.0,51,-99.99,,,-99.99,meteohub,2013-03-08 04:09:00,
2013-03-07 23:14:00,37.2,20.8,29.87,North,-999,-999.0,-999.0,51,-99.99,,,-99.99,meteohub,2013-03-08 04:14:00,
2013-03-07 23:20:00,37.0,20.7,29.87,North,-999,-999.0,-999.0,51,-99.99,,,-99.99,meteohub,2013-03-08 04:20:00,
2013-03-07 23:25:00,36.7,20.8,29.87,North,-999,-999.0,-999.0,52,-99.99,,,-99.99,meteohub,2013-03-08 04:25:00,
2013-03-07 23:30:00,36.7,20.8,29.87,North,-999,-999.0,-999.0,52,-99.99,,,-99.99,meteohub,2013-03-08 04:30:00,
2013-03-07 23:35:00,36.5,20.7,29.87,North,-999,-999.0,-999.0,52,-99.99,,,-99.99,meteohub,2013-03-08 04:35:00,
2013-03-07 23:40:00,36.3,20.5,29.87,North,-999,-999.0,-999.0,52,-99.99,,,-99.99,meteohub,2013-03-08 04:40:00,
2013-03-07 23:46:00,36.1,20.3,29.87,North,-999,-999.0,-999.0,52,-99.99,,,-99.99,meteohub,2013-03-08 04:46:00,
2013-03-07 23:51:00,36.0,20.5,29.87,North,-999,-999.0,-999.0,53,-99.99,,,-99.99,meteohub,2013-03-08 04:51:00,
2013-03-07 23:56:00,35.8,20.3,29.87,North,-999,-999.0,-999.0,53,-99.99,,,-99.99,meteohub,2013-03-08 04:56:00,